Terminal Aerodrome Forecast
Issued by NWS

Home | Current Version | Previous Version | Text Only | Print | Product List | Glossary On
Versions: 1 2 3 4 5 6 7 8 9 10 11 12 13 14 15 16
000
FTUS45 KRIW 211728
TAFCOD
TAF
KCOD 211728Z 2118/2218 25016G28KT P6SM VCSH SCT030 BKN045
      WS020/24050KT
     FM212100 25013KT P6SM VCSH SCT030 BKN040
     FM220500 25015KT P6SM BKN100 WS018/25040KT
     FM221100 24018G28KT P6SM FEW110
      TEMPO 2212/2214 24030G40KT
     FM221600 26013KT P6SM SCT060 BKN090
      AMD LTD TO CLD VIS AND WIND=

USA.gov is the U.S. government's official web portal to all federal, state and local government web resources and services.